sensor_id;sensor_type;location;lat;lon;timestamp;temperature;humidity
18361;SHT31;9308;48.550;9.108;2023-07-31T00:00:00;17.09;67.09
18361;SHT31;9308;48.550;9.108;2023-07-31T00:02:25;16.80;67.76
18361;SHT31;9308;48.550;9.108;2023-07-31T00:04:51;16.75;68.17
18361;SHT31;9308;48.550;9.108;2023-07-31T00:07:16;16.82;67.80
18361;SHT31;9308;48.550;9.108;2023-07-31T00:09:42;16.73;67.98
18361;SHT31;9308;48.550;9.108;2023-07-31T00:12:07;16.92;67.40
18361;SHT31;9308;48.550;9.108;2023-07-31T00:14:33;16.82;67.80
18361;SHT31;9308;48.550;9.108;2023-07-31T00:16:58;16.59;68.31
18361;SHT31;9308;48.550;9.108;2023-07-31T00:19:24;16.80;67.76
18361;SHT31;9308;48.550;9.108;2023-07-31T00:21:49;16.92;67.71
18361;SHT31;9308;48.550;9.108;2023-07-31T00:24:15;16.86;67.73
18361;SHT31;9308;48.550;9.108;2023-07-31T00:26:40;16.92;67.70
18361;SHT31;9308;48.550;9.108;2023-07-31T00:29:06;16.77;67.96
18361;SHT31;9308;48.550;9.108;2023-07-31T00:31:31;16.88;67.47
18361;SHT31;9308;48.550;9.108;2023-07-31T00:33:57;16.86;67.39
18361;SHT31;9308;48.550;9.108;2023-07-31T00:36:22;16.41;68.89
18361;SHT31;9308;48.550;9.108;2023-07-31T00:38:48;16.65;68.33
18361;SHT31;9308;48.550;9.108;2023-07-31T00:41:14;16.61;68.57
18361;SHT31;9308;48.550;9.108;2023-07-31T00:43:39;16.59;68.37
18361;SHT31;9308;48.550;9.108;2023-07-31T00:46:05;16.77;67.87
18361;SHT31;9308;48.550;9.108;2023-07-31T00:48:32;16.68;68.00
18361;SHT31;9308;48.550;9.108;2023-07-31T00:50:57;16.55;68.55
18361;SHT31;9308;48.550;9.108;2023-07-31T00:53:24;16.76;67.73
18361;SHT31;9308;48.550;9.108;2023-07-31T00:55:50;16.64;68.02
18361;SHT31;9308;48.550;9.108;2023-07-31T00:58:16;16.23;69.41
18361;SHT31;9308;48.550;9.108;2023-07-31T01:00:41;16.61;68.31
18361;SHT31;9308;48.550;9.108;2023-07-31T01:03:06;16.77;67.59
18361;SHT31;9308;48.550;9.108;2023-07-31T01:08:37;16.86;67.27
18361;SHT31;9308;48.550;9.108;2023-07-31T01:11:18;16.77;67.65
18361;SHT31;9308;48.550;9.108;2023-07-31T01:13:45;16.73;67.68
18361;SHT31;9308;48.550;9.108;2023-07-31T01:16:12;16.99;66.94
18361;SHT31;9308;48.550;9.108;2023-07-31T01:18:37;16.59;67.80
18361;SHT31;9308;48.550;9.108;2023-07-31T01:21:23;16.62;67.52
18361;SHT31;9308;48.550;9.108;2023-07-31T01:26:45;16.62;67.78
18361;SHT31;9308;48.550;9.108;2023-07-31T01:32:04;16.69;67.64
18361;SHT31;9308;48.550;9.108;2023-07-31T01:34:31;16.64;67.59
18361;SHT31;9308;48.550;9.108;2023-07-31T01:36:57;16.45;68.60
18361;SHT31;9308;48.550;9.108;2023-07-31T01:39:23;16.51;68.27
18361;SHT31;9308;48.550;9.108;2023-07-31T01:41:49;16.47;68.35
18361;SHT31;9308;48.550;9.108;2023-07-31T01:44:14;16.45;68.47
18361;SHT31;9308;48.550;9.108;2023-07-31T01:46:40;16.42;68.49
18361;SHT31;9308;48.550;9.108;2023-07-31T01:49:05;16.56;68.39
18361;SHT31;9308;48.550;9.108;2023-07-31T01:51:31;16.48;68.55
18361;SHT31;9308;48.550;9.108;2023-07-31T01:54:02;16.47;68.20
18361;SHT31;9308;48.550;9.108;2023-07-31T01:56:28;16.65;68.22
18361;SHT31;9308;48.550;9.108;2023-07-31T01:58:53;16.51;67.78
18361;SHT31;9308;48.550;9.108;2023-07-31T02:01:19;16.33;68.90
18361;SHT31;9308;48.550;9.108;2023-07-31T02:03:45;16.42;68.08
18361;SHT31;9308;48.550;9.108;2023-07-31T02:06:10;16.27;68.61
18361;SHT31;9308;48.550;9.108;2023-07-31T02:08:36;16.27;68.92
18361;SHT31;9308;48.550;9.108;2023-07-31T02:11:01;16.18;69.18
18361;SHT31;9308;48.550;9.108;2023-07-31T02:13:27;16.09;69.51
18361;SHT31;9308;48.550;9.108;2023-07-31T02:15:52;16.27;68.88
18361;SHT31;9308;48.550;9.108;2023-07-31T02:18:18;16.20;69.32
18361;SHT31;9308;48.550;9.108;2023-07-31T02:20:43;16.21;69.40
18361;SHT31;9308;48.550;9.108;2023-07-31T02:23:11;16.14;69.45
18361;SHT31;9308;48.550;9.108;2023-07-31T02:25:36;16.35;68.66
18361;SHT31;9308;48.550;9.108;2023-07-31T02:28:02;16.35;68.84
18361;SHT31;9308;48.550;9.108;2023-07-31T02:30:27;16.37;68.75
18361;SHT31;9308;48.550;9.108;2023-07-31T02:32:53;16.30;68.88
18361;SHT31;9308;48.550;9.108;2023-07-31T02:35:18;16.21;68.83
18361;SHT31;9308;48.550;9.108;2023-07-31T02:37:44;16.13;69.38
18361;SHT31;9308;48.550;9.108;2023-07-31T02:40:10;16.40;68.79
18361;SHT31;9308;48.550;9.108;2023-07-31T02:42:35;16.48;67.78
18361;SHT31;9308;48.550;9.108;2023-07-31T02:45:00;16.48;67.37
18361;SHT31;9308;48.550;9.108;2023-07-31T02:47:26;16.33;68.53
18361;SHT31;9308;48.550;9.108;2023-07-31T02:49:51;16.23;68.97
18361;SHT31;9308;48.550;9.108;2023-07-31T02:52:17;16.18;69.02
18361;SHT31;9308;48.550;9.108;2023-07-31T02:54:42;16.41;68.56
18361;SHT31;9308;48.550;9.108;2023-07-31T02:57:08;16.38;68.00
18361;SHT31;9308;48.550;9.108;2023-07-31T02:59:33;16.17;68.69
18361;SHT31;9308;48.550;9.108;2023-07-31T03:01:58;16.07;69.21
18361;SHT31;9308;48.550;9.108;2023-07-31T03:04:24;15.90;69.35
18361;SHT31;9308;48.550;9.108;2023-07-31T03:06:49;16.10;69.00
18361;SHT31;9308;48.550;9.108;2023-07-31T03:09:15;15.93;69.21
18361;SHT31;9308;48.550;9.108;2023-07-31T03:11:40;16.14;69.13
18361;SHT31;9308;48.550;9.108;2023-07-31T03:14:05;16.12;68.39
18361;SHT31;9308;48.550;9.108;2023-07-31T03:16:31;16.16;68.64
18361;SHT31;9308;48.550;9.108;2023-07-31T03:18:56;16.27;68.43
18361;SHT31;9308;48.550;9.108;2023-07-31T03:21:22;16.26;68.58
18361;SHT31;9308;48.550;9.108;2023-07-31T03:23:47;16.03;68.89
18361;SHT31;9308;48.550;9.108;2023-07-31T03:26:12;16.17;68.74
18361;SHT31;9308;48.550;9.108;2023-07-31T03:28:38;16.23;68.31
18361;SHT31;9308;48.550;9.108;2023-07-31T03:31:04;16.24;68.58
18361;SHT31;9308;48.550;9.108;2023-07-31T03:33:29;16.03;68.82
18361;SHT31;9308;48.550;9.108;2023-07-31T03:35:55;15.96;69.12
18361;SHT31;9308;48.550;9.108;2023-07-31T03:38:20;16.12;68.96
18361;SHT31;9308;48.550;9.108;2023-07-31T03:40:46;16.09;69.12
18361;SHT31;9308;48.550;9.108;2023-07-31T03:43:12;15.94;69.18
18361;SHT31;9308;48.550;9.108;2023-07-31T03:45:37;16.07;68.93
18361;SHT31;9308;48.550;9.108;2023-07-31T03:48:03;15.91;69.54
18361;SHT31;9308;48.550;9.108;2023-07-31T03:50:29;16.07;69.10
18361;SHT31;9308;48.550;9.108;2023-07-31T03:52:54;15.96;69.50
18361;SHT31;9308;48.550;9.108;2023-07-31T03:55:20;16.03;69.59
18361;SHT31;9308;48.550;9.108;2023-07-31T03:57:47;16.13;69.13
18361;SHT31;9308;48.550;9.108;2023-07-31T04:00:12;16.23;69.05
18361;SHT31;9308;48.550;9.108;2023-07-31T04:02:38;16.31;68.69
18361;SHT31;9308;48.550;9.108;2023-07-31T04:05:03;16.16;69.30
18361;SHT31;9308;48.550;9.108;2023-07-31T04:07:28;16.27;69.56
18361;SHT31;9308;48.550;9.108;2023-07-31T04:09:54;16.51;68.93
18361;SHT31;9308;48.550;9.108;2023-07-31T04:12:19;16.35;69.34
18361;SHT31;9308;48.550;9.108;2023-07-31T04:14:45;16.52;68.82
18361;SHT31;9308;48.550;9.108;2023-07-31T04:17:10;16.62;68.43
18361;SHT31;9308;48.550;9.108;2023-07-31T04:19:36;16.44;68.91
18361;SHT31;9308;48.550;9.108;2023-07-31T04:22:01;16.59;68.39
18361;SHT31;9308;48.550;9.108;2023-07-31T04:24:26;16.49;68.57
18361;SHT31;9308;48.550;9.108;2023-07-31T04:26:52;16.41;69.04
18361;SHT31;9308;48.550;9.108;2023-07-31T04:29:18;16.49;68.55
18361;SHT31;9308;48.550;9.108;2023-07-31T04:31:43;16.71;68.62
18361;SHT31;9308;48.550;9.108;2023-07-31T04:34:09;16.56;69.18
18361;SHT31;9308;48.550;9.108;2023-07-31T04:36:35;16.68;69.05
18361;SHT31;9308;48.550;9.108;2023-07-31T04:39:00;16.62;68.62
18361;SHT31;9308;48.550;9.108;2023-07-31T04:41:26;16.80;67.69
18361;SHT31;9308;48.550;9.108;2023-07-31T04:43:52;16.88;67.50
18361;SHT31;9308;48.550;9.108;2023-07-31T04:46:17;17.10;66.85
18361;SHT31;9308;48.550;9.108;2023-07-31T04:48:43;17.14;67.17
18361;SHT31;9308;48.550;9.108;2023-07-31T04:51:08;17.34;66.84
18361;SHT31;9308;48.550;9.108;2023-07-31T04:53:35;17.24;67.12
18361;SHT31;9308;48.550;9.108;2023-07-31T04:56:00;17.19;67.05
18361;SHT31;9308;48.550;9.108;2023-07-31T04:58:26;17.13;67.78
18361;SHT31;9308;48.550;9.108;2023-07-31T05:00:51;17.17;67.95
18361;SHT31;9308;48.550;9.108;2023-07-31T05:03:17;17.38;67.23
18361;SHT31;9308;48.550;9.108;2023-07-31T05:05:42;17.31;66.59
18361;SHT31;9308;48.550;9.108;2023-07-31T05:08:07;17.42;66.67
18361;SHT31;9308;48.550;9.108;2023-07-31T05:10:33;17.62;66.68
18361;SHT31;9308;48.550;9.108;2023-07-31T05:12:58;17.83;66.00
18361;SHT31;9308;48.550;9.108;2023-07-31T05:15:24;17.75;66.13
18361;SHT31;9308;48.550;9.108;2023-07-31T05:17:49;17.75;66.29
18361;SHT31;9308;48.550;9.108;2023-07-31T05:20:15;17.64;65.88
18361;SHT31;9308;48.550;9.108;2023-07-31T05:22:40;17.79;66.08
18361;SHT31;9308;48.550;9.108;2023-07-31T05:25:06;17.64;66.12
18361;SHT31;9308;48.550;9.108;2023-07-31T05:27:32;18.02;65.51
18361;SHT31;9308;48.550;9.108;2023-07-31T05:29:57;18.35;64.88
18361;SHT31;9308;48.550;9.108;2023-07-31T05:32:23;18.21;64.78
18361;SHT31;9308;48.550;9.108;2023-07-31T05:34:51;18.17;65.49
18361;SHT31;9308;48.550;9.108;2023-07-31T05:37:17;18.34;64.84
18361;SHT31;9308;48.550;9.108;2023-07-31T05:39:43;18.28;65.20
18361;SHT31;9308;48.550;9.108;2023-07-31T05:42:08;18.30;65.30
18361;SHT31;9308;48.550;9.108;2023-07-31T05:44:33;18.44;65.09
18361;SHT31;9308;48.550;9.108;2023-07-31T05:46:59;18.40;65.13
18361;SHT31;9308;48.550;9.108;2023-07-31T05:49:24;18.47;64.73
18361;SHT31;9308;48.550;9.108;2023-07-31T05:51:50;18.57;64.46
18361;SHT31;9308;48.550;9.108;2023-07-31T05:54:15;18.68;64.56
18361;SHT31;9308;48.550;9.108;2023-07-31T05:56:40;18.72;63.68
18361;SHT31;9308;48.550;9.108;2023-07-31T05:59:06;19.09;63.79
18361;SHT31;9308;48.550;9.108;2023-07-31T06:01:31;19.30;63.60
18361;SHT31;9308;48.550;9.108;2023-07-31T06:03:57;19.33;63.61
18361;SHT31;9308;48.550;9.108;2023-07-31T06:06:22;19.38;62.18
18361;SHT31;9308;48.550;9.108;2023-07-31T06:08:48;19.44;63.49
18361;SHT31;9308;48.550;9.108;2023-07-31T06:11:13;19.58;63.51
18361;SHT31;9308;48.550;9.108;2023-07-31T06:13:38;19.44;63.39
18361;SHT31;9308;48.550;9.108;2023-07-31T06:16:04;19.10;64.04
18361;SHT31;9308;48.550;9.108;2023-07-31T06:18:34;19.30;65.30
18361;SHT31;9308;48.550;9.108;2023-07-31T06:20:59;19.51;64.09
18361;SHT31;9308;48.550;9.108;2023-07-31T06:23:25;19.22;65.35
18361;SHT31;9308;48.550;9.108;2023-07-31T06:25:50;19.23;64.25
18361;SHT31;9308;48.550;9.108;2023-07-31T06:28:16;19.36;63.03
18361;SHT31;9308;48.550;9.108;2023-07-31T06:30:41;19.03;64.34
18361;SHT31;9308;48.550;9.108;2023-07-31T06:33:07;19.13;65.19
18361;SHT31;9308;48.550;9.108;2023-07-31T06:35:32;19.72;63.60
18361;SHT31;9308;48.550;9.108;2023-07-31T06:37:58;19.76;62.92
18361;SHT31;9308;48.550;9.108;2023-07-31T06:40:23;19.93;62.52
18361;SHT31;9308;48.550;9.108;2023-07-31T06:42:49;20.16;61.88
18361;SHT31;9308;48.550;9.108;2023-07-31T06:45:14;19.99;60.66
18361;SHT31;9308;48.550;9.108;2023-07-31T06:47:39;20.27;60.72
18361;SHT31;9308;48.550;9.108;2023-07-31T06:50:05;20.45;60.11
18361;SHT31;9308;48.550;9.108;2023-07-31T06:52:30;20.48;59.50
18361;SHT31;9308;48.550;9.108;2023-07-31T06:55:18;20.57;57.95
18361;SHT31;9308;48.550;9.108;2023-07-31T06:57:44;20.48;58.99
18361;SHT31;9308;48.550;9.108;2023-07-31T07:00:10;20.59;60.02
18361;SHT31;9308;48.550;9.108;2023-07-31T07:02:36;20.71;59.31
18361;SHT31;9308;48.550;9.108;2023-07-31T07:05:01;20.89;59.19
18361;SHT31;9308;48.550;9.108;2023-07-31T07:07:27;20.71;57.30
18361;SHT31;9308;48.550;9.108;2023-07-31T07:09:53;20.71;58.47
18361;SHT31;9308;48.550;9.108;2023-07-31T07:12:18;20.75;58.32
18361;SHT31;9308;48.550;9.108;2023-07-31T07:14:44;21.05;58.39
18361;SHT31;9308;48.550;9.108;2023-07-31T07:17:11;20.89;57.31
18361;SHT31;9308;48.550;9.108;2023-07-31T07:19:36;21.16;57.82
18361;SHT31;9308;48.550;9.108;2023-07-31T07:22:01;21.22;57.10
18361;SHT31;9308;48.550;9.108;2023-07-31T07:24:27;21.23;57.12
18361;SHT31;9308;48.550;9.108;2023-07-31T07:26:53;21.22;56.92
18361;SHT31;9308;48.550;9.108;2023-07-31T07:29:18;21.19;56.05
18361;SHT31;9308;48.550;9.108;2023-07-31T07:31:44;21.05;56.06
18361;SHT31;9308;48.550;9.108;2023-07-31T07:34:09;21.22;57.15
18361;SHT31;9308;48.550;9.108;2023-07-31T07:36:34;21.43;56.37
18361;SHT31;9308;48.550;9.108;2023-07-31T07:39:00;21.50;55.94
18361;SHT31;9308;48.550;9.108;2023-07-31T07:41:25;21.44;55.84
18361;SHT31;9308;48.550;9.108;2023-07-31T07:43:50;21.32;56.07
18361;SHT31;9308;48.550;9.108;2023-07-31T07:46:17;21.27;56.45
18361;SHT31;9308;48.550;9.108;2023-07-31T07:48:42;21.22;56.31
18361;SHT31;9308;48.550;9.108;2023-07-31T07:51:07;21.06;56.75
18361;SHT31;9308;48.550;9.108;2023-07-31T07:53:33;21.22;55.68
18361;SHT31;9308;48.550;9.108;2023-07-31T07:55:58;21.43;55.97
18361;SHT31;9308;48.550;9.108;2023-07-31T07:58:24;21.68;56.51
18361;SHT31;9308;48.550;9.108;2023-07-31T08:00:50;21.49;54.97
18361;SHT31;9308;48.550;9.108;2023-07-31T08:03:16;21.55;55.02
18361;SHT31;9308;48.550;9.108;2023-07-31T08:05:42;21.78;55.34
18361;SHT31;9308;48.550;9.108;2023-07-31T08:08:07;22.06;55.41
18361;SHT31;9308;48.550;9.108;2023-07-31T08:10:33;21.89;54.82
18361;SHT31;9308;48.550;9.108;2023-07-31T08:12:58;22.05;54.00
18361;SHT31;9308;48.550;9.108;2023-07-31T08:15:24;22.15;53.23
18361;SHT31;9308;48.550;9.108;2023-07-31T08:17:49;22.44;53.64
18361;SHT31;9308;48.550;9.108;2023-07-31T08:20:15;22.61;53.68
18361;SHT31;9308;48.550;9.108;2023-07-31T08:22:40;22.40;51.56
18361;SHT31;9308;48.550;9.108;2023-07-31T08:25:06;22.47;51.37
18361;SHT31;9308;48.550;9.108;2023-07-31T08:27:32;22.23;52.31
18361;SHT31;9308;48.550;9.108;2023-07-31T08:29:57;22.10;52.19
18361;SHT31;9308;48.550;9.108;2023-07-31T08:32:23;22.10;52.58
18361;SHT31;9308;48.550;9.108;2023-07-31T08:34:48;22.22;51.91
18361;SHT31;9308;48.550;9.108;2023-07-31T08:37:14;22.36;51.35
18361;SHT31;9308;48.550;9.108;2023-07-31T08:39:40;22.61;50.49
18361;SHT31;9308;48.550;9.108;2023-07-31T08:42:08;23.01;50.17
18361;SHT31;9308;48.550;9.108;2023-07-31T08:44:34;23.18;50.89
18361;SHT31;9308;48.550;9.108;2023-07-31T08:47:01;23.63;51.72
18361;SHT31;9308;48.550;9.108;2023-07-31T08:49:27;23.87;49.86
18361;SHT31;9308;48.550;9.108;2023-07-31T08:51:53;23.84;48.75
18361;SHT31;9308;48.550;9.108;2023-07-31T08:54:20;23.88;48.28
18361;SHT31;9308;48.550;9.108;2023-07-31T08:56:46;23.91;48.04
18361;SHT31;9308;48.550;9.108;2023-07-31T08:59:12;24.06;49.76
18361;SHT31;9308;48.550;9.108;2023-07-31T09:01:43;24.59;49.13
18361;SHT31;9308;48.550;9.108;2023-07-31T09:04:09;24.88;47.56
18361;SHT31;9308;48.550;9.108;2023-07-31T09:06:35;25.05;46.96
18361;SHT31;9308;48.550;9.108;2023-07-31T09:09:01;25.03;47.40
18361;SHT31;9308;48.550;9.108;2023-07-31T09:11:27;24.52;47.62
18361;SHT31;9308;48.550;9.108;2023-07-31T09:13:55;23.93;49.18
18361;SHT31;9308;48.550;9.108;2023-07-31T09:16:29;24.40;48.22
18361;SHT31;9308;48.550;9.108;2023-07-31T09:18:57;25.15;47.90
18361;SHT31;9308;48.550;9.108;2023-07-31T09:21:24;25.39;45.61
18361;SHT31;9308;48.550;9.108;2023-07-31T09:23:51;25.21;45.61
18361;SHT31;9308;48.550;9.108;2023-07-31T09:26:34;25.58;45.05
18361;SHT31;9308;48.550;9.108;2023-07-31T09:29:01;25.47;45.53
18361;SHT31;9308;48.550;9.108;2023-07-31T09:31:42;25.74;45.06
18361;SHT31;9308;48.550;9.108;2023-07-31T09:34:08;25.49;46.43
18361;SHT31;9308;48.550;9.108;2023-07-31T09:36:43;25.28;46.20
18361;SHT31;9308;48.550;9.108;2023-07-31T09:39:10;25.05;47.18
18361;SHT31;9308;48.550;9.108;2023-07-31T09:41:39;24.90;46.09
18361;SHT31;9308;48.550;9.108;2023-07-31T09:44:06;24.94;47.16
18361;SHT31;9308;48.550;9.108;2023-07-31T09:46:35;24.76;47.69
18361;SHT31;9308;48.550;9.108;2023-07-31T09:49:18;24.74;46.80
18361;SHT31;9308;48.550;9.108;2023-07-31T09:51:43;24.74;45.33
18361;SHT31;9308;48.550;9.108;2023-07-31T09:54:16;25.15;47.54
18361;SHT31;9308;48.550;9.108;2023-07-31T09:56:47;25.10;47.09
18361;SHT31;9308;48.550;9.108;2023-07-31T09:59:18;25.04;47.61
18361;SHT31;9308;48.550;9.108;2023-07-31T10:01:45;25.03;45.28
18361;SHT31;9308;48.550;9.108;2023-07-31T10:04:12;25.01;45.63
18361;SHT31;9308;48.550;9.108;2023-07-31T10:06:39;25.11;47.04
18361;SHT31;9308;48.550;9.108;2023-07-31T10:09:07;25.84;45.82
18361;SHT31;9308;48.550;9.108;2023-07-31T10:11:47;25.94;44.07
18361;SHT31;9308;48.550;9.108;2023-07-31T10:14:18;25.76;44.31
18361;SHT31;9308;48.550;9.108;2023-07-31T10:16:45;26.21;46.21
18361;SHT31;9308;48.550;9.108;2023-07-31T10:19:10;26.31;44.64
18361;SHT31;9308;48.550;9.108;2023-07-31T10:21:37;26.65;43.96
18361;SHT31;9308;48.550;9.108;2023-07-31T10:24:04;26.73;45.54
18361;SHT31;9308;48.550;9.108;2023-07-31T10:26:31;27.27;43.14
18361;SHT31;9308;48.550;9.108;2023-07-31T10:28:58;26.93;43.31
18361;SHT31;9308;48.550;9.108;2023-07-31T10:31:24;27.12;43.24
18361;SHT31;9308;48.550;9.108;2023-07-31T10:33:52;27.38;45.37
18361;SHT31;9308;48.550;9.108;2023-07-31T10:36:19;27.24;42.71
18361;SHT31;9308;48.550;9.108;2023-07-31T10:38:46;27.20;43.59
18361;SHT31;9308;48.550;9.108;2023-07-31T10:41:14;27.03;43.00
18361;SHT31;9308;48.550;9.108;2023-07-31T10:43:39;27.21;43.01
18361;SHT31;9308;48.550;9.108;2023-07-31T10:46:14;28.04;41.17
18361;SHT31;9308;48.550;9.108;2023-07-31T10:48:41;28.17;39.76
18361;SHT31;9308;48.550;9.108;2023-07-31T10:51:15;28.17;40.43
18361;SHT31;9308;48.550;9.108;2023-07-31T10:53:42;27.59;40.90
18361;SHT31;9308;48.550;9.108;2023-07-31T10:56:09;27.17;41.56
18361;SHT31;9308;48.550;9.108;2023-07-31T10:58:38;27.24;40.46
18361;SHT31;9308;48.550;9.108;2023-07-31T11:01:04;27.59;40.02
18361;SHT31;9308;48.550;9.108;2023-07-31T11:03:44;27.25;41.43
18361;SHT31;9308;48.550;9.108;2023-07-31T11:06:10;27.72;41.66
18361;SHT31;9308;48.550;9.108;2023-07-31T11:08:42;28.23;40.13
18361;SHT31;9308;48.550;9.108;2023-07-31T11:11:09;28.51;39.68
18361;SHT31;9308;48.550;9.108;2023-07-31T11:13:42;28.76;42.40
18361;SHT31;9308;48.550;9.108;2023-07-31T11:16:14;29.03;38.54
18361;SHT31;9308;48.550;9.108;2023-07-31T11:18:41;29.47;38.18
18361;SHT31;9308;48.550;9.108;2023-07-31T11:21:14;29.66;38.47
18361;SHT31;9308;48.550;9.108;2023-07-31T11:23:40;29.78;36.52
18361;SHT31;9308;48.550;9.108;2023-07-31T11:26:06;30.00;37.17
18361;SHT31;9308;48.550;9.108;2023-07-31T11:28:33;29.86;38.23
18361;SHT31;9308;48.550;9.108;2023-07-31T11:30:59;29.44;37.68
18361;SHT31;9308;48.550;9.108;2023-07-31T11:33:25;28.89;39.15
18361;SHT31;9308;48.550;9.108;2023-07-31T11:35:51;29.29;38.29
18361;SHT31;9308;48.550;9.108;2023-07-31T11:38:23;29.73;38.92
18361;SHT31;9308;48.550;9.108;2023-07-31T11:40:49;29.03;38.17
18361;SHT31;9308;48.550;9.108;2023-07-31T11:43:15;28.44;39.94
18361;SHT31;9308;48.550;9.108;2023-07-31T11:45:53;28.24;40.42
18361;SHT31;9308;48.550;9.108;2023-07-31T11:48:20;28.17;40.47
18361;SHT31;9308;48.550;9.108;2023-07-31T11:50:48;28.38;40.08
18361;SHT31;9308;48.550;9.108;2023-07-31T11:53:15;28.71;40.82
18361;SHT31;9308;48.550;9.108;2023-07-31T11:55:42;29.03;39.41
18361;SHT31;9308;48.550;9.108;2023-07-31T11:58:09;28.53;40.60
18361;SHT31;9308;48.550;9.108;2023-07-31T12:00:34;27.80;40.47
18361;SHT31;9308;48.550;9.108;2023-07-31T12:03:00;27.51;41.22
18361;SHT31;9308;48.550;9.108;2023-07-31T12:05:25;26.83;41.92
18361;SHT31;9308;48.550;9.108;2023-07-31T12:07:54;26.27;42.94
18361;SHT31;9308;48.550;9.108;2023-07-31T12:13:05;26.36;46.84
18361;SHT31;9308;48.550;9.108;2023-07-31T12:15:42;26.25;45.60
18361;SHT31;9308;48.550;9.108;2023-07-31T12:18:13;26.02;46.00
18361;SHT31;9308;48.550;9.108;2023-07-31T12:20:59;26.27;46.61
18361;SHT31;9308;48.550;9.108;2023-07-31T12:23:30;26.21;44.93
18361;SHT31;9308;48.550;9.108;2023-07-31T12:28:34;26.05;45.91
18361;SHT31;9308;48.550;9.108;2023-07-31T12:31:00;25.90;46.25
18361;SHT31;9308;48.550;9.108;2023-07-31T12:33:34;26.20;47.92
18361;SHT31;9308;48.550;9.108;2023-07-31T12:36:04;26.01;46.82
18361;SHT31;9308;48.550;9.108;2023-07-31T12:38:30;26.49;47.20
18361;SHT31;9308;48.550;9.108;2023-07-31T12:40:56;27.00;47.30
18361;SHT31;9308;48.550;9.108;2023-07-31T12:43:21;27.20;44.78
18361;SHT31;9308;48.550;9.108;2023-07-31T12:45:46;27.51;44.97
18361;SHT31;9308;48.550;9.108;2023-07-31T12:48:13;28.24;44.36
18361;SHT31;9308;48.550;9.108;2023-07-31T12:50:38;28.67;42.55
18361;SHT31;9308;48.550;9.108;2023-07-31T12:53:05;28.74;41.36
18361;SHT31;9308;48.550;9.108;2023-07-31T12:55:30;28.79;41.58
18361;SHT31;9308;48.550;9.108;2023-07-31T12:57:56;28.37;42.76
18361;SHT31;9308;48.550;9.108;2023-07-31T13:00:22;28.51;41.43
18361;SHT31;9308;48.550;9.108;2023-07-31T13:02:47;28.41;42.80
18361;SHT31;9308;48.550;9.108;2023-07-31T13:05:13;28.92;42.50
18361;SHT31;9308;48.550;9.108;2023-07-31T13:07:39;29.48;42.28
18361;SHT31;9308;48.550;9.108;2023-07-31T13:10:05;29.52;40.08
18361;SHT31;9308;48.550;9.108;2023-07-31T13:12:31;29.37;38.76
18361;SHT31;9308;48.550;9.108;2023-07-31T13:14:56;29.54;40.07
18361;SHT31;9308;48.550;9.108;2023-07-31T13:17:22;29.04;39.99
18361;SHT31;9308;48.550;9.108;2023-07-31T13:19:47;29.00;39.65
18361;SHT31;9308;48.550;9.108;2023-07-31T13:22:12;29.34;40.45
18361;SHT31;9308;48.550;9.108;2023-07-31T13:24:38;29.82;41.01
18361;SHT31;9308;48.550;9.108;2023-07-31T13:27:03;29.24;39.72
18361;SHT31;9308;48.550;9.108;2023-07-31T13:29:29;28.38;39.67
18361;SHT31;9308;48.550;9.108;2023-07-31T13:31:55;28.09;39.83
18361;SHT31;9308;48.550;9.108;2023-07-31T13:34:21;27.72;39.64
18361;SHT31;9308;48.550;9.108;2023-07-31T13:36:46;26.97;40.54
18361;SHT31;9308;48.550;9.108;2023-07-31T13:39:12;26.79;41.19
18361;SHT31;9308;48.550;9.108;2023-07-31T13:41:37;26.45;42.10
18361;SHT31;9308;48.550;9.108;2023-07-31T13:44:03;26.28;43.11
18361;SHT31;9308;48.550;9.108;2023-07-31T13:48:56;25.63;44.84
18361;SHT31;9308;48.550;9.108;2023-07-31T13:51:21;25.25;43.61
18361;SHT31;9308;48.550;9.108;2023-07-31T13:53:47;25.21;44.86
18361;SHT31;9308;48.550;9.108;2023-07-31T13:56:13;25.12;44.72
18361;SHT31;9308;48.550;9.108;2023-07-31T13:58:39;25.26;44.77
18361;SHT31;9308;48.550;9.108;2023-07-31T14:01:04;25.31;45.33
18361;SHT31;9308;48.550;9.108;2023-07-31T14:03:30;25.12;45.80
18361;SHT31;9308;48.550;9.108;2023-07-31T14:05:55;25.12;45.76
18361;SHT31;9308;48.550;9.108;2023-07-31T14:08:21;24.95;45.67
18361;SHT31;9308;48.550;9.108;2023-07-31T14:10:47;24.70;45.05
18361;SHT31;9308;48.550;9.108;2023-07-31T14:13:12;24.55;46.07
18361;SHT31;9308;48.550;9.108;2023-07-31T14:15:39;24.88;45.72
18361;SHT31;9308;48.550;9.108;2023-07-31T14:18:04;24.64;45.67
18361;SHT31;9308;48.550;9.108;2023-07-31T14:20:30;24.73;46.52
18361;SHT31;9308;48.550;9.108;2023-07-31T14:22:55;24.94;46.35
18361;SHT31;9308;48.550;9.108;2023-07-31T14:25:20;24.84;46.31
18361;SHT31;9308;48.550;9.108;2023-07-31T14:27:46;25.33;48.89
18361;SHT31;9308;48.550;9.108;2023-07-31T14:30:11;25.14;47.78
18361;SHT31;9308;48.550;9.108;2023-07-31T14:32:37;25.29;47.87
18361;SHT31;9308;48.550;9.108;2023-07-31T14:35:03;25.43;50.53
18361;SHT31;9308;48.550;9.108;2023-07-31T14:37:37;25.39;49.91
18361;SHT31;9308;48.550;9.108;2023-07-31T14:40:03;25.65;48.89
18361;SHT31;9308;48.550;9.108;2023-07-31T14:42:29;25.46;47.34
18361;SHT31;9308;48.550;9.108;2023-07-31T14:44:54;25.22;46.88
18361;SHT31;9308;48.550;9.108;2023-07-31T14:47:19;24.69;46.72
18361;SHT31;9308;48.550;9.108;2023-07-31T14:49:45;24.90;47.11
18361;SHT31;9308;48.550;9.108;2023-07-31T14:52:10;24.73;47.46
18361;SHT31;9308;48.550;9.108;2023-07-31T14:54:35;24.80;46.48
18361;SHT31;9308;48.550;9.108;2023-07-31T14:57:01;24.90;47.26
18361;SHT31;9308;48.550;9.108;2023-07-31T14:59:26;24.98;48.37
18361;SHT31;9308;48.550;9.108;2023-07-31T15:01:52;25.01;47.96
18361;SHT31;9308;48.550;9.108;2023-07-31T15:04:18;24.77;46.81
18361;SHT31;9308;48.550;9.108;2023-07-31T15:06:43;24.90;48.08
18361;SHT31;9308;48.550;9.108;2023-07-31T15:09:09;25.12;46.95
18361;SHT31;9308;48.550;9.108;2023-07-31T15:11:34;24.86;47.04
18361;SHT31;9308;48.550;9.108;2023-07-31T15:13:59;24.86;47.69
18361;SHT31;9308;48.550;9.108;2023-07-31T15:16:25;25.00;48.91
18361;SHT31;9308;48.550;9.108;2023-07-31T15:18:50;24.97;47.00
18361;SHT31;9308;48.550;9.108;2023-07-31T15:21:16;25.18;47.45
18361;SHT31;9308;48.550;9.108;2023-07-31T15:23:41;25.00;48.50
18361;SHT31;9308;48.550;9.108;2023-07-31T15:26:06;25.26;47.99
18361;SHT31;9308;48.550;9.108;2023-07-31T15:28:32;25.43;46.81
18361;SHT31;9308;48.550;9.108;2023-07-31T15:31:00;25.28;46.54
18361;SHT31;9308;48.550;9.108;2023-07-31T15:33:25;25.31;47.59
18361;SHT31;9308;48.550;9.108;2023-07-31T15:35:51;25.05;47.40
18361;SHT31;9308;48.550;9.108;2023-07-31T15:38:21;25.04;47.90
18361;SHT31;9308;48.550;9.108;2023-07-31T15:40:48;25.25;47.89
18361;SHT31;9308;48.550;9.108;2023-07-31T15:43:14;25.43;47.98
18361;SHT31;9308;48.550;9.108;2023-07-31T15:45:40;25.10;48.30
18361;SHT31;9308;48.550;9.108;2023-07-31T15:48:05;25.04;48.80
18361;SHT31;9308;48.550;9.108;2023-07-31T15:50:31;25.41;47.98
18361;SHT31;9308;48.550;9.108;2023-07-31T15:52:56;25.76;48.17
18361;SHT31;9308;48.550;9.108;2023-07-31T15:55:21;25.81;49.15